Time;durP1;ratioP1;P1;durP2;ratioP2;P2;SDS_P1;SDS_P2;PMS_P1;PMS_P2;Temp;Humidity;BMP_temperature;BMP_pressure;BME280_temperature;BME280_humidity;BME280_pressure;Samples;Min_cycle;Max_cycle;Signal;HPM_P1;HPM_P2
2021/06/15 00:01:44;;;;;;;12.30;9.50;;;;;;;;;;4991119;28;20428;-48
2021/06/15 00:04:10;;;;;;;11.40;9.80;;;;;;;;;;4990899;28;20408;-48
2021/06/15 00:06:36;;;;;;;13.10;8.80;;;;;;;;;;4992844;28;20404;-48
2021/06/15 00:09:02;;;;;;;12.23;9.83;;;;;;;;;;4994916;28;20458;-48
2021/06/15 00:11:28;;;;;;;13.50;9.93;;;;;;;;;;4994860;28;20455;-49
2021/06/15 00:13:53;;;;;;;12.00;8.73;;;;;;;;;;4994718;28;20747;-49
2021/06/15 00:16:20;;;;;;;13.00;8.80;;;;;;;;;;4994712;28;20782;-49
2021/06/15 00:18:46;;;;;;;14.30;9.20;;;;;;;;;;4994594;28;20451;-48
2021/06/15 00:21:12;;;;;;;13.20;8.93;;;;;;;;;;4994765;28;20427;-49
2021/06/15 00:23:38;;;;;;;12.03;10.00;;;;;;;;;;4994641;28;20777;-48
2021/06/15 00:26:04;;;;;;;11.90;9.80;;;;;;;;;;4994604;28;20423;-48
2021/06/15 00:28:30;;;;;;;12.30;11.00;;;;;;;;;;4994683;28;20462;-49
2021/06/15 00:30:56;;;;;;;14.10;9.57;;;;;;;;;;4994489;28;20459;-48
2021/06/15 00:33:22;;;;;;;15.03;10.17;;;;;;;;;;4994276;28;20408;-48
2021/06/15 00:35:48;;;;;;;11.50;9.13;;;;;;;;;;4994574;28;20911;-49
2021/06/15 00:38:14;;;;;;;13.43;9.57;;;;;;;;;;4994334;28;20433;-48
2021/06/15 00:40:40;;;;;;;13.83;9.43;;;;;;;;;;4994493;28;20403;-48
2021/06/15 00:43:06;;;;;;;10.40;9.40;;;;;;;;;;4994322;28;20777;-48
2021/06/15 00:45:32;;;;;;;9.67;8.57;;;;;;;;;;4994302;28;20407;-48
2021/06/15 00:47:58;;;;;;;18.17;10.93;;;;;;;;;;4994082;28;20435;-48
2021/06/15 00:50:25;;;;;;;16.07;9.90;;;;;;;;;;4994319;28;20404;-49
2021/06/15 00:52:53;;;;;;;18.47;10.70;;;;;;;;;;4994104;28;20435;-48
2021/06/15 00:55:20;;;;;;;14.53;9.83;;;;;;;;;;4994122;28;20486;-49
2021/06/15 00:57:46;;;;;;;14.73;10.43;;;;;;;;;;4994091;28;20490;-48
2021/06/15 01:00:12;;;;;;;11.83;9.07;;;;;;;;;;4994042;28;20455;-48
2021/06/15 01:02:38;;;;;;;18.80;10.60;;;;;;;;;;4993219;28;20428;-48
2021/06/15 01:05:05;;;;;;;12.80;10.30;;;;;;;;;;4993697;28;20415;-48
2021/06/15 01:07:31;;;;;;;17.37;11.00;;;;;;;;;;4994275;28;20439;-48
2021/06/15 01:10:02;;;;;;;19.37;13.37;;;;;;;;;;4993890;28;20404;-49
2021/06/15 01:12:37;;;;;;;23.20;13.90;;;;;;;;;;4993941;28;20502;-48
2021/06/15 01:15:06;;;;;;;23.30;13.70;;;;;;;;;;4993630;28;20446;-48
2021/06/15 01:17:37;;;;;;;26.30;14.20;;;;;;;;;;4993446;28;20397;-49
2021/06/15 01:20:16;;;;;;;22.97;12.93;;;;;;;;;;4993765;28;20424;-49
2021/06/15 01:22:42;;;;;;;17.57;11.97;;;;;;;;;;4994109;28;20507;-48
2021/06/15 01:25:28;;;;;;;17.40;11.17;;;;;;;;;;4993588;28;20487;-48
2021/06/15 01:28:03;;;;;;;19.77;11.77;;;;;;;;;;4993564;28;20488;-49
2021/06/15 01:30:35;;;;;;;19.77;11.40;;;;;;;;;;4993477;28;20455;-48
2021/06/15 01:33:03;;;;;;;20.17;11.13;;;;;;;;;;4993536;28;20440;-48
2021/06/15 01:35:30;;;;;;;16.77;12.10;;;;;;;;;;4993361;28;20414;-48
2021/06/15 01:37:59;;;;;;;16.13;10.70;;;;;;;;;;4993102;28;20400;-48
2021/06/15 01:40:33;;;;;;;17.03;10.37;;;;;;;;;;4993267;28;20400;-48
2021/06/15 01:43:02;;;;;;;11.43;10.20;;;;;;;;;;4993302;28;20419;-48
2021/06/15 01:45:31;;;;;;;12.17;10.43;;;;;;;;;;4993193;28;20396;-48
2021/06/15 01:48:05;;;;;;;18.00;10.70;;;;;;;;;;4993092;28;20487;-48
2021/06/15 01:50:33;;;;;;;19.90;11.80;;;;;;;;;;4993026;28;20455;-48
2021/06/15 01:53:00;;;;;;;19.97;11.60;;;;;;;;;;4993043;28;20497;-48
2021/06/15 01:55:28;;;;;;;16.43;13.43;;;;;;;;;;4992939;28;20962;-48
2021/06/15 01:57:54;;;;;;;18.77;13.17;;;;;;;;;;4992947;28;20470;-48
2021/06/15 02:00:21;;;;;;;14.57;12.53;;;;;;;;;;4992975;28;20916;-48
2021/06/15 02:02:49;;;;;;;15.23;11.23;;;;;;;;;;4992838;28;20428;-49
2021/06/15 02:05:19;;;;;;;19.10;13.33;;;;;;;;;;4992912;28;20379;-48
2021/06/15 02:07:46;;;;;;;15.93;13.60;;;;;;;;;;4992749;28;20400;-48
2021/06/15 02:10:14;;;;;;;17.53;13.13;;;;;;;;;;4992625;28;20396;-48
2021/06/15 02:12:43;;;;;;;14.00;12.50;;;;;;;;;;4992647;28;20424;-48
2021/06/15 02:15:10;;;;;;;18.03;14.30;;;;;;;;;;4992659;28;20759;-48
2021/06/15 02:17:39;;;;;;;23.97;13.40;;;;;;;;;;4992381;28;20938;-48
2021/06/15 02:20:06;;;;;;;16.53;13.40;;;;;;;;;;4992773;28;20404;-48
2021/06/15 02:22:33;;;;;;;15.10;13.50;;;;;;;;;;4992485;28;21065;-49
2021/06/15 02:25:01;;;;;;;17.83;14.10;;;;;;;;;;4992710;28;20767;-48
2021/06/15 02:27:27;;;;;;;16.80;13.13;;;;;;;;;;4992221;28;20454;-48
2021/06/15 02:29:54;;;;;;;17.07;13.67;;;;;;;;;;4991417;28;20779;-48
2021/06/15 02:32:22;;;;;;;20.43;14.50;;;;;;;;;;4992114;28;20460;-48
2021/06/15 02:34:49;;;;;;;21.23;14.00;;;;;;;;;;4992377;28;20458;-48
2021/06/15 02:37:22;;;;;;;22.23;14.87;;;;;;;;;;4991991;28;20813;-48
2021/06/15 02:39:48;;;;;;;21.50;15.77;;;;;;;;;;4992551;28;20716;-49
2021/06/15 02:42:15;;;;;;;20.33;16.40;;;;;;;;;;4991899;28;20424;-47
2021/06/15 02:44:42;;;;;;;24.13;15.60;;;;;;;;;;4992142;28;20971;-47
2021/06/15 02:47:09;;;;;;;19.40;15.50;;;;;;;;;;4991847;28;20416;-48
2021/06/15 02:49:40;;;;;;;17.40;14.97;;;;;;;;;;4992127;28;20896;-48
2021/06/15 02:52:06;;;;;;;21.47;17.07;;;;;;;;;;4991801;28;20842;-47
2021/06/15 02:54:51;;;;;;;20.40;17.07;;;;;;;;;;4992049;28;20396;-48
2021/06/15 02:57:17;;;;;;;23.83;18.23;;;;;;;;;;4991545;28;20400;-48
2021/06/15 02:59:44;;;;;;;22.73;15.27;;;;;;;;;;4991992;28;20404;-47
2021/06/15 03:02:10;;;;;;;22.40;17.00;;;;;;;;;;4991722;28;20420;-48
2021/06/15 03:04:36;;;;;;;25.83;16.23;;;;;;;;;;4991866;28;20899;-48
2021/06/15 03:07:02;;;;;;;21.93;18.93;;;;;;;;;;4991617;28;20790;-48
2021/06/15 03:09:28;;;;;;;22.33;17.80;;;;;;;;;;4991789;28;20487;-47
2021/06/15 03:12:03;;;;;;;22.53;17.00;;;;;;;;;;4991703;28;20506;-48
2021/06/15 03:14:30;;;;;;;28.60;18.57;;;;;;;;;;4991784;28;20378;-47
2021/06/15 03:17:01;;;;;;;24.57;17.47;;;;;;;;;;4991444;28;20759;-48
2021/06/15 03:19:34;;;;;;;24.73;17.70;;;;;;;;;;4991674;28;20408;-48
2021/06/15 03:22:11;;;;;;;19.03;16.80;;;;;;;;;;4991475;28;20428;-47
2021/06/15 03:24:40;;;;;;;22.20;17.97;;;;;;;;;;4991556;28;20884;-48
2021/06/15 03:27:07;;;;;;;30.73;18.97;;;;;;;;;;4991245;28;20415;-48
2021/06/15 03:29:37;;;;;;;19.03;16.67;;;;;;;;;;4992050;28;20787;-48
2021/06/15 03:32:07;;;;;;;24.00;17.33;;;;;;;;;;4991245;28;20462;-48
2021/06/15 03:34:36;;;;;;;20.60;17.50;;;;;;;;;;4991410;28;20892;-48
2021/06/15 03:37:03;;;;;;;23.63;18.60;;;;;;;;;;4991249;28;20463;-47
2021/06/15 03:39:30;;;;;;;21.27;17.00;;;;;;;;;;4991557;28;20412;-48
2021/06/15 03:41:57;;;;;;;20.67;18.50;;;;;;;;;;4991080;28;20428;-49
2021/06/15 03:44:24;;;;;;;20.67;16.87;;;;;;;;;;4991539;28;20404;-48
2021/06/15 03:46:50;;;;;;;21.10;18.00;;;;;;;;;;4991553;28;20487;-47
2021/06/15 03:49:17;;;;;;;24.70;16.27;;;;;;;;;;4991425;28;20404;-47
2021/06/15 03:51:45;;;;;;;21.00;18.40;;;;;;;;;;4991365;28;20494;-48
2021/06/15 03:54:13;;;;;;;25.83;18.37;;;;;;;;;;4991328;28;20408;-47
2021/06/15 03:56:43;;;;;;;19.63;17.17;;;;;;;;;;4991099;28;20784;-48
2021/06/15 03:59:09;;;;;;;24.50;17.20;;;;;;;;;;4991170;28;20399;-47
2021/06/15 04:01:36;;;;;;;28.67;17.43;;;;;;;;;;4991036;28;20511;-47
2021/06/15 04:04:08;;;;;;;25.80;17.80;;;;;;;;;;4991096;28;20436;-48
2021/06/15 04:06:45;;;;;;;20.67;16.77;;;;;;;;;;4990968;28;20616;-48
2021/06/15 04:09:11;;;;;;;19.50;17.43;;;;;;;;;;4991064;28;20405;-48
2021/06/15 04:11:38;;;;;;;19.80;16.83;;;;;;;;;;4991016;28;20430;-48
2021/06/15 04:14:05;;;;;;;21.63;17.60;;;;;;;;;;4990820;28;20774;-48
2021/06/15 04:16:31;;;;;;;22.50;17.80;;;;;;;;;;4990926;28;20923;-48
2021/06/15 04:18:58;;;;;;;21.40;17.40;;;;;;;;;;4990989;28;20379;-48
2021/06/15 04:21:25;;;;;;;30.90;18.07;;;;;;;;;;4990930;28;20940;-47
2021/06/15 04:23:56;;;;;;;20.53;17.50;;;;;;;;;;4990823;28;20404;-48
2021/06/15 04:26:22;;;;;;;20.80;16.83;;;;;;;;;;4990759;28;20408;-47
2021/06/15 04:28:48;;;;;;;27.47;18.13;;;;;;;;;;4990667;28;20407;-48
2021/06/15 04:31:15;;;;;;;21.73;17.60;;;;;;;;;;4990878;28;20558;-48
2021/06/15 04:33:46;;;;;;;19.40;15.97;;;;;;;;;;4990775;28;20404;-48
2021/06/15 04:36:13;;;;;;;16.43;14.70;;;;;;;;;;4990873;28;20400;-48
2021/06/15 04:38:46;;;;;;;22.27;16.70;;;;;;;;;;4990788;28;20925;-47
2021/06/15 04:41:38;;;;;;;24.10;16.67;;;;;;;;;;4990705;28;20955;-48
2021/06/15 04:44:05;;;;;;;22.50;17.20;;;;;;;;;;4986990;28;20411;-48
2021/06/15 04:46:44;;;;;;;19.37;16.77;;;;;;;;;;4990923;28;20386;-47
2021/06/15 04:49:30;;;;;;;23.10;16.60;;;;;;;;;;4990709;28;20411;-48
2021/06/15 04:51:58;;;;;;;25.43;16.73;;;;;;;;;;4990718;28;20483;-48
2021/06/15 04:54:28;;;;;;;25.30;16.93;;;;;;;;;;4993443;28;20416;-48
2021/06/15 04:56:55;;;;;;;21.07;18.17;;;;;;;;;;4994219;28;20407;-48
2021/06/15 04:59:22;;;;;;;24.43;16.77;;;;;;;;;;4994074;28;20431;-48
2021/06/15 05:01:48;;;;;;;24.80;17.93;;;;;;;;;;4994602;28;20482;-48
2021/06/15 05:04:14;;;;;;;26.07;17.83;;;;;;;;;;4993831;28;20408;-49
2021/06/15 05:06:41;;;;;;;19.73;16.00;;;;;;;;;;4993905;28;20773;-48
2021/06/15 05:09:08;;;;;;;24.63;17.33;;;;;;;;;;4993752;28;20408;-48
2021/06/15 05:11:35;;;;;;;22.00;17.23;;;;;;;;;;4994595;28;20581;-47
2021/06/15 05:14:02;;;;;;;22.90;17.10;;;;;;;;;;4994490;28;20400;-48
2021/06/15 05:16:31;;;;;;;27.77;17.97;;;;;;;;;;4994421;28;20697;-48
2021/06/15 05:18:58;;;;;;;23.13;18.17;;;;;;;;;;4994579;28;20446;-47
2021/06/15 05:21:26;;;;;;;25.30;18.73;;;;;;;;;;4994546;28;20526;-47
2021/06/15 05:23:56;;;;;;;24.93;19.73;;;;;;;;;;4995162;28;20466;-48
2021/06/15 05:26:22;;;;;;;23.50;17.73;;;;;;;;;;4994249;28;20412;-48
2021/06/15 05:28:48;;;;;;;24.00;17.40;;;;;;;;;;4994604;28;20438;-48
2021/06/15 05:31:14;;;;;;;24.10;18.27;;;;;;;;;;4994046;28;20467;-50
2021/06/15 05:33:40;;;;;;;19.93;17.40;;;;;;;;;;4994420;28;20885;-48
2021/06/15 05:36:06;;;;;;;22.67;17.47;;;;;;;;;;4994239;28;20400;-48
2021/06/15 05:38:32;;;;;;;25.50;18.83;;;;;;;;;;4994044;28;20400;-50
2021/06/15 05:40:59;;;;;;;22.30;18.13;;;;;;;;;;4994400;28;20424;-49
2021/06/15 05:43:25;;;;;;;28.93;17.30;;;;;;;;;;4994181;28;20416;-47
2021/06/15 05:45:51;;;;;;;24.93;17.10;;;;;;;;;;4993743;28;20434;-47
2021/06/15 05:48:17;;;;;;;25.83;19.10;;;;;;;;;;4993964;28;20462;-49
2021/06/15 05:50:43;;;;;;;23.63;18.33;;;;;;;;;;4994505;28;20455;-48
2021/06/15 05:53:09;;;;;;;25.90;19.17;;;;;;;;;;4994087;28;20424;-48
2021/06/15 05:55:35;;;;;;;23.50;16.60;;;;;;;;;;4994411;28;20892;-49
2021/06/15 05:58:01;;;;;;;28.23;19.37;;;;;;;;;;4994176;28;20408;-48
2021/06/15 06:00:27;;;;;;;29.80;20.03;;;;;;;;;;4994103;28;20438;-48
2021/06/15 06:02:53;;;;;;;22.13;19.10;;;;;;;;;;4994599;28;20454;-50
2021/06/15 06:10:30;;;;;;;29.53;20.47;;;;;;;;;;4994201;28;20400;-50
2021/06/15 06:12:55;;;;;;;31.77;21.50;;;;;;;;;;4993893;28;20586;-49
2021/06/15 06:15:21;;;;;;;22.93;17.20;;;;;;;;;;4994302;28;20787;-48
2021/06/15 06:17:47;;;;;;;25.47;18.67;;;;;;;;;;4994298;28;20827;-50
2021/06/15 06:20:15;;;;;;;28.40;20.07;;;;;;;;;;4994723;28;20404;-49
2021/06/15 06:22:41;;;;;;;30.80;20.13;;;;;;;;;;4994484;28;20882;-47
2021/06/15 06:25:15;;;;;;;27.97;18.33;;;;;;;;;;4994604;28;20436;-49
2021/06/15 06:27:41;;;;;;;25.13;20.30;;;;;;;;;;4994691;28;20412;-48
2021/06/15 06:30:08;;;;;;;32.23;19.53;;;;;;;;;;4994385;28;20411;-48
2021/06/15 06:32:35;;;;;;;22.87;16.13;;;;;;;;;;4994215;28;20472;-49
2021/06/15 06:35:04;;;;;;;20.67;17.50;;;;;;;;;;4994254;28;20473;-48
2021/06/15 06:37:30;;;;;;;26.40;18.43;;;;;;;;;;4994253;28;20434;-48
2021/06/15 06:39:56;;;;;;;24.60;20.90;;;;;;;;;;4994185;28;20404;-49
2021/06/15 06:42:22;;;;;;;27.97;19.30;;;;;;;;;;4993912;28;20954;-50
2021/06/15 06:44:49;;;;;;;28.13;17.00;;;;;;;;;;4994663;28;20411;-49
2021/06/15 06:47:15;;;;;;;24.43;17.20;;;;;;;;;;4994404;28;20415;-48
2021/06/15 06:49:41;;;;;;;43.43;21.80;;;;;;;;;;4994254;28;20404;-49
2021/06/15 06:52:07;;;;;;;32.90;19.73;;;;;;;;;;4993980;28;20666;-50
2021/06/15 06:54:35;;;;;;;32.83;23.30;;;;;;;;;;4994400;28;20404;-49
2021/06/15 06:57:01;;;;;;;25.53;20.30;;;;;;;;;;4993896;28;20768;-48
2021/06/15 06:59:28;;;;;;;24.77;20.90;;;;;;;;;;4994298;28;20396;-49
2021/06/15 07:01:54;;;;;;;26.27;17.87;;;;;;;;;;4993402;28;20516;-49
2021/06/15 07:04:20;;;;;;;26.90;18.70;;;;;;;;;;4993606;28;20440;-48
2021/06/15 07:06:46;;;;;;;22.87;16.67;;;;;;;;;;4993611;28;20408;-48
2021/06/15 07:09:12;;;;;;;26.27;19.90;;;;;;;;;;4993738;28;20464;-49
2021/06/15 07:11:38;;;;;;;24.97;19.90;;;;;;;;;;4993658;28;20623;-49
2021/06/15 07:14:04;;;;;;;28.50;20.43;;;;;;;;;;4993975;28;20396;-48
2021/06/15 07:16:30;;;;;;;28.27;20.83;;;;;;;;;;4993448;28;20943;-49
2021/06/15 07:18:56;;;;;;;28.07;21.20;;;;;;;;;;4995463;28;20436;-48
2021/06/15 07:21:22;;;;;;;33.30;22.13;;;;;;;;;;4994837;28;20563;-48
2021/06/15 07:23:49;;;;;;;23.40;19.87;;;;;;;;;;4994370;28;20404;-50
2021/06/15 07:26:15;;;;;;;29.13;18.33;;;;;;;;;;4994308;28;20420;-49
2021/06/15 07:28:41;;;;;;;25.63;17.40;;;;;;;;;;4994818;28;20491;-49
2021/06/15 07:31:07;;;;;;;24.87;19.80;;;;;;;;;;4994637;28;20890;-49
2021/06/15 07:33:33;;;;;;;30.50;23.20;;;;;;;;;;4994437;28;20829;-50
2021/06/15 07:35:59;;;;;;;29.50;17.70;;;;;;;;;;4994529;28;20482;-50
2021/06/15 07:38:25;;;;;;;28.23;20.73;;;;;;;;;;4993653;28;20415;-48
2021/06/15 07:40:51;;;;;;;30.03;20.57;;;;;;;;;;4992734;28;20972;-48
2021/06/15 07:43:17;;;;;;;29.80;21.80;;;;;;;;;;4993095;28;20939;-48
2021/06/15 07:45:43;;;;;;;26.57;19.80;;;;;;;;;;4992683;28;20790;-48
2021/06/15 07:48:09;;;;;;;23.60;18.43;;;;;;;;;;4992711;28;20404;-48
2021/06/15 07:50:35;;;;;;;26.83;19.43;;;;;;;;;;4992377;28;20988;-48
2021/06/15 07:53:01;;;;;;;25.90;21.70;;;;;;;;;;4992113;28;20523;-48
2021/06/15 07:55:27;;;;;;;28.87;21.17;;;;;;;;;;4992298;28;20750;-48
2021/06/15 07:57:54;;;;;;;30.90;21.93;;;;;;;;;;4992406;28;20404;-48
2021/06/15 08:00:21;;;;;;;28.10;23.27;;;;;;;;;;4992635;28;20885;-48
2021/06/15 08:02:47;;;;;;;25.17;20.10;;;;;;;;;;4992760;28;20636;-48
2021/06/15 08:05:13;;;;;;;33.60;24.53;;;;;;;;;;4992668;28;20896;-48
2021/06/15 08:07:48;;;;;;;30.93;19.67;;;;;;;;;;4992179;28;20396;-48
2021/06/15 08:10:15;;;;;;;22.47;18.73;;;;;;;;;;4992717;28;20780;-48
2021/06/15 08:12:42;;;;;;;24.50;21.67;;;;;;;;;;4992882;28;20463;-48
2021/06/15 08:15:08;;;;;;;23.80;17.73;;;;;;;;;;4992894;28;20396;-48
2021/06/15 08:17:34;;;;;;;26.53;21.20;;;;;;;;;;4993091;28;20455;-48
2021/06/15 08:20:00;;;;;;;26.43;19.23;;;;;;;;;;4993923;28;20400;-48
2021/06/15 08:22:26;;;;;;;29.27;22.67;;;;;;;;;;4994499;28;20428;-48
2021/06/15 08:24:51;;;;;;;27.00;22.30;;;;;;;;;;4994686;28;20408;-47
2021/06/15 08:27:21;;;;;;;30.73;21.73;;;;;;;;;;4996487;28;20434;-47
2021/06/15 08:29:47;;;;;;;21.77;19.30;;;;;;;;;;5000937;28;20435;-48
2021/06/15 08:32:13;;;;;;;36.30;22.17;;;;;;;;;;5002341;28;20513;-48
2021/06/15 08:34:39;;;;;;;26.33;19.57;;;;;;;;;;5002393;28;20396;-48
2021/06/15 08:37:05;;;;;;;21.20;15.87;;;;;;;;;;5003961;28;20815;-48
2021/06/15 08:39:31;;;;;;;19.37;16.57;;;;;;;;;;5003822;28;20400;-50
2021/06/15 08:41:57;;;;;;;19.43;16.97;;;;;;;;;;5003753;28;20484;-49
2021/06/15 08:44:23;;;;;;;21.17;16.43;;;;;;;;;;5003305;28;20415;-50
2021/06/15 08:46:50;;;;;;;18.93;16.90;;;;;;;;;;5003456;28;20767;-50
2021/06/15 08:49:16;;;;;;;23.87;17.40;;;;;;;;;;5003474;28;20412;-48
2021/06/15 08:51:42;;;;;;;24.10;17.67;;;;;;;;;;4985778;28;20467;-49
2021/06/15 08:54:08;;;;;;;18.37;14.80;;;;;;;;;;5003796;28;20431;-49
2021/06/15 08:56:35;;;;;;;19.20;15.50;;;;;;;;;;5003345;28;20400;-50
2021/06/15 08:59:18;;;;;;;15.03;12.13;;;;;;;;;;5002834;28;20423;-48
2021/06/15 09:01:45;;;;;;;20.37;12.97;;;;;;;;;;5001866;28;20427;-49
2021/06/15 09:04:11;;;;;;;18.70;15.27;;;;;;;;;;5002074;28;20416;-49
2021/06/15 09:06:37;;;;;;;25.60;15.30;;;;;;;;;;5002477;28;20422;-49
2021/06/15 09:09:03;;;;;;;18.57;14.27;;;;;;;;;;5003490;28;20447;-49
2021/06/15 09:11:46;;;;;;;20.93;14.80;;;;;;;;;;5003399;28;20467;-49
2021/06/15 09:14:13;;;;;;;20.93;14.57;;;;;;;;;;4986521;28;20785;-50
2021/06/15 09:16:44;;;;;;;20.10;13.17;;;;;;;;;;5003981;28;20427;-48
2021/06/15 09:19:15;;;;;;;18.10;15.33;;;;;;;;;;4986860;28;20440;-48
2021/06/15 09:21:42;;;;;;;16.43;14.63;;;;;;;;;;5004044;28;20451;-49
2021/06/15 09:24:11;;;;;;;20.53;16.43;;;;;;;;;;5004698;28;20499;-49
2021/06/15 09:26:53;;;;;;;17.70;13.30;;;;;;;;;;4998500;28;20844;-50
2021/06/15 09:29:19;;;;;;;20.10;14.90;;;;;;;;;;4986828;28;20835;-50
2021/06/15 09:31:52;;;;;;;14.50;10.97;;;;;;;;;;5002878;28;20463;-48
2021/06/15 09:34:18;;;;;;;14.00;11.67;;;;;;;;;;5002716;28;20943;-48
2021/06/15 09:36:44;;;;;;;18.03;12.70;;;;;;;;;;5003682;28;20404;-50
2021/06/15 09:39:10;;;;;;;17.70;12.97;;;;;;;;;;5003083;28;20415;-48
2021/06/15 09:41:36;;;;;;;19.17;13.27;;;;;;;;;;5004846;28;20459;-50
2021/06/15 09:44:22;;;;;;;15.33;13.03;;;;;;;;;;5004502;28;20435;-49
2021/06/15 09:46:50;;;;;;;15.13;11.80;;;;;;;;;;5003995;28;20777;-50
2021/06/15 09:49:36;;;;;;;16.70;10.80;;;;;;;;;;5004597;28;20431;-48
2021/06/15 09:52:09;;;;;;;12.43;10.90;;;;;;;;;;5004273;28;20486;-49
2021/06/15 09:54:52;;;;;;;13.53;10.80;;;;;;;;;;5003836;28;20416;-49
2021/06/15 09:57:20;;;;;;;13.10;10.77;;;;;;;;;;5002271;28;20426;-50
2021/06/15 10:00:00;;;;;;;12.73;11.13;;;;;;;;;;5003558;28;20451;-49
2021/06/15 10:02:26;;;;;;;12.30;10.97;;;;;;;;;;5003388;28;20492;-49
2021/06/15 10:04:52;;;;;;;13.00;10.80;;;;;;;;;;5003324;28;20543;-50
2021/06/15 10:07:26;;;;;;;12.30;11.07;;;;;;;;;;5000986;28;20420;-49
2021/06/15 10:09:52;;;;;;;14.47;11.70;;;;;;;;;;5002116;28;20404;-50
2021/06/15 10:12:19;;;;;;;11.17;9.80;;;;;;;;;;4999980;28;20456;-49
2021/06/15 10:14:45;;;;;;;7.80;7.00;;;;;;;;;;5001515;28;20950;-50
2021/06/15 10:17:11;;;;;;;8.77;7.87;;;;;;;;;;5002549;28;20423;-49
2021/06/15 10:19:39;;;;;;;14.13;8.13;;;;;;;;;;5003013;28;20436;-51
2021/06/15 10:22:08;;;;;;;8.50;7.60;;;;;;;;;;5003008;28;20423;-50
2021/06/15 10:24:36;;;;;;;7.60;6.90;;;;;;;;;;5002223;28;20459;-49
2021/06/15 10:27:03;;;;;;;9.10;4.60;;;;;;;;;;5001905;28;20423;-49
2021/06/15 10:29:29;;;;;;;5.70;4.17;;;;;;;;;;5002251;28;20404;-48
2021/06/15 10:31:56;;;;;;;6.30;4.97;;;;;;;;;;5001355;28;20847;-50
2021/06/15 10:34:41;;;;;;;4.87;4.10;;;;;;;;;;5000702;28;20407;-49
2021/06/15 10:37:07;;;;;;;10.30;5.60;;;;;;;;;;5000881;28;20399;-51
2021/06/15 10:39:40;;;;;;;4.93;4.00;;;;;;;;;;5000549;28;20433;-50
2021/06/15 10:42:14;;;;;;;10.20;6.73;;;;;;;;;;5001156;28;20428;-49
2021/06/15 10:44:40;;;;;;;4.67;4.27;;;;;;;;;;5000205;28;20483;-51
2021/06/15 10:47:11;;;;;;;5.70;4.50;;;;;;;;;;4999761;28;20791;-52
2021/06/15 10:49:56;;;;;;;5.03;4.63;;;;;;;;;;4999127;28;20396;-50
2021/06/15 10:52:23;;;;;;;5.43;4.93;;;;;;;;;;4998501;28;20475;-52
2021/06/15 10:54:49;;;;;;;10.20;4.80;;;;;;;;;;4998280;28;20469;-52
2021/06/15 10:57:23;;;;;;;4.60;4.20;;;;;;;;;;4997975;28;20887;-50
2021/06/15 11:00:02;;;;;;;5.50;4.93;;;;;;;;;;4998248;28;20412;-49
2021/06/15 11:02:31;;;;;;;5.80;4.10;;;;;;;;;;4996688;28;20427;-49
2021/06/15 11:04:57;;;;;;;4.60;4.20;;;;;;;;;;4997137;28;20427;-49
2021/06/15 11:07:27;;;;;;;6.13;4.10;;;;;;;;;;4996969;28;20404;-48
2021/06/15 11:09:53;;;;;;;7.87;4.00;;;;;;;;;;4997316;28;20435;-49
2021/06/15 11:12:20;;;;;;;6.87;3.67;;;;;;;;;;4995225;28;20830;-51
2021/06/15 11:15:06;;;;;;;5.30;4.07;;;;;;;;;;4991654;28;20741;-49
2021/06/15 11:17:52;;;;;;;7.13;4.30;;;;;;;;;;4991495;28;20400;-49
2021/06/15 11:20:26;;;;;;;12.00;6.60;;;;;;;;;;4991537;28;20908;-48
2021/06/15 11:23:11;;;;;;;6.13;5.53;;;;;;;;;;4991402;28;20458;-48
2021/06/15 11:25:44;;;;;;;8.17;5.10;;;;;;;;;;4991334;28;20410;-51
2021/06/15 11:28:28;;;;;;;5.37;4.30;;;;;;;;;;4991567;28;20396;-49
2021/06/15 11:31:15;;;;;;;8.23;4.20;;;;;;;;;;4991069;28;20494;-48
2021/06/15 11:33:59;;;;;;;4.30;3.90;;;;;;;;;;4991365;28;20404;-49
2021/06/15 11:36:41;;;;;;;3.10;2.80;;;;;;;;;;4991280;28;20450;-48
2021/06/15 11:39:28;;;;;;;5.53;3.50;;;;;;;;;;4991746;28;20404;-48
2021/06/15 11:42:19;;;;;;;3.13;2.83;;;;;;;;;;4991443;28;20462;-49
2021/06/15 11:44:48;;;;;;;4.17;3.10;;;;;;;;;;4991661;28;20400;-49
2021/06/15 11:47:22;;;;;;;3.93;3.20;;;;;;;;;;4991268;28;20412;-51
2021/06/15 11:50:21;;;;;;;7.57;2.77;;;;;;;;;;4991450;28;21092;-51
2021/06/15 11:52:53;;;;;;;6.73;3.03;;;;;;;;;;4947935;28;20493;-49
2021/06/15 11:55:19;;;;;;;3.93;2.60;;;;;;;;;;4991311;28;20971;-50
2021/06/15 11:57:46;;;;;;;3.53;2.83;;;;;;;;;;4991003;28;20416;-49
2021/06/15 12:00:13;;;;;;;3.13;2.30;;;;;;;;;;4991334;28;20511;-49
2021/06/15 12:02:39;;;;;;;2.83;2.30;;;;;;;;;;4992765;28;20420;-52
2021/06/15 12:05:09;;;;;;;3.73;3.10;;;;;;;;;;4995221;28;20408;-52
2021/06/15 12:07:35;;;;;;;4.37;2.57;;;;;;;;;;4994948;28;20435;-50
2021/06/15 12:10:06;;;;;;;3.03;2.70;;;;;;;;;;4995177;28;20778;-52
2021/06/15 12:12:52;;;;;;;3.80;2.93;;;;;;;;;;4994996;28;20478;-49
2021/06/15 12:15:28;;;;;;;2.67;2.47;;;;;;;;;;4995062;28;20870;-49
2021/06/15 12:17:54;;;;;;;2.43;2.03;;;;;;;;;;4994896;28;20395;-49
2021/06/15 12:20:22;;;;;;;3.20;2.83;;;;;;;;;;4994835;28;20837;-49
2021/06/15 12:22:48;;;;;;;3.33;2.33;;;;;;;;;;4994784;28;20459;-51
2021/06/15 12:25:15;;;;;;;2.80;2.60;;;;;;;;;;4994787;28;20896;-49
2021/06/15 12:27:40;;;;;;;2.80;2.57;;;;;;;;;;4994561;28;20416;-49
2021/06/15 12:30:07;;;;;;;9.43;2.57;;;;;;;;;;4994656;28;20400;-50
2021/06/15 12:32:48;;;;;;;2.33;2.10;;;;;;;;;;4993334;28;20467;-49
2021/06/15 12:35:23;;;;;;;3.93;2.60;;;;;;;;;;4994524;28;20913;-49
2021/06/15 12:37:49;;;;;;;2.60;2.20;;;;;;;;;;4993792;28;20462;-52
2021/06/15 12:40:15;;;;;;;4.97;2.63;;;;;;;;;;4993897;28;20413;-51
2021/06/15 12:42:41;;;;;;;6.53;2.83;;;;;;;;;;4994344;28;20432;-49
2021/06/15 12:45:08;;;;;;;3.60;3.00;;;;;;;;;;4994239;28;20427;-53
2021/06/15 12:47:42;;;;;;;6.43;2.10;;;;;;;;;;4994338;28;20762;-52
2021/06/15 12:50:19;;;;;;;2.70;2.30;;;;;;;;;;4994451;28;20486;-49
2021/06/15 12:52:45;;;;;;;4.00;1.97;;;;;;;;;;4976449;28;20463;-50
2021/06/15 12:55:13;;;;;;;3.23;2.77;;;;;;;;;;4993976;28;20462;-50
2021/06/15 12:57:38;;;;;;;3.17;2.73;;;;;;;;;;4977496;28;20413;-50
2021/06/15 13:00:08;;;;;;;3.30;2.50;;;;;;;;;;4975042;28;20405;-50
2021/06/15 13:02:36;;;;;;;2.80;2.17;;;;;;;;;;4978914;28;20428;-51
2021/06/15 13:05:04;;;;;;;4.03;2.23;;;;;;;;;;4973937;28;20428;-50
2021/06/15 13:07:32;;;;;;;2.23;2.00;;;;;;;;;;4972921;28;20405;-51
2021/06/15 13:10:14;;;;;;;1.80;1.70;;;;;;;;;;4981626;28;21170;-50
2021/06/15 13:12:45;;;;;;;3.53;2.57;;;;;;;;;;4974774;28;21023;-50
2021/06/15 13:15:15;;;;;;;2.60;2.07;;;;;;;;;;4973879;28;20447;-50
2021/06/15 13:17:41;;;;;;;2.60;1.90;;;;;;;;;;4982587;28;20404;-51
2021/06/15 13:20:12;;;;;;;3.90;2.07;;;;;;;;;;4981588;28;20404;-51
2021/06/15 13:22:43;;;;;;;2.30;1.73;;;;;;;;;;4984227;28;20472;-52
2021/06/15 13:25:12;;;;;;;2.33;2.13;;;;;;;;;;4984639;28;20460;-51
2021/06/15 13:27:40;;;;;;;6.13;2.13;;;;;;;;;;4991630;28;20420;-52
2021/06/15 13:30:09;;;;;;;2.10;1.90;;;;;;;;;;4989122;28;20411;-50
2021/06/15 13:32:36;;;;;;;2.10;1.80;;;;;;;;;;4984203;28;20464;-51
2021/06/15 13:35:04;;;;;;;2.20;2.10;;;;;;;;;;4990444;28;20422;-50
2021/06/15 13:37:32;;;;;;;3.43;1.87;;;;;;;;;;4992163;28;20439;-51
2021/06/15 13:39:58;;;;;;;2.03;1.73;;;;;;;;;;4992034;28;20915;-50
2021/06/15 13:42:25;;;;;;;1.70;1.60;;;;;;;;;;4990412;28;20455;-51
2021/06/15 13:45:03;;;;;;;2.50;1.80;;;;;;;;;;4991090;28;20414;-50
2021/06/15 13:47:29;;;;;;;2.23;1.70;;;;;;;;;;4991256;28;20433;-51
2021/06/15 13:49:55;;;;;;;3.83;2.03;;;;;;;;;;4992557;28;20740;-50
2021/06/15 13:52:21;;;;;;;6.10;1.97;;;;;;;;;;4992938;28;20467;-51
2021/06/15 13:54:47;;;;;;;3.03;2.07;;;;;;;;;;4993408;28;20401;-50
2021/06/15 13:57:13;;;;;;;3.60;2.10;;;;;;;;;;4993201;28;20401;-50
2021/06/15 13:59:40;;;;;;;2.80;1.70;;;;;;;;;;4993087;28;20408;-50
2021/06/15 14:02:06;;;;;;;2.53;2.00;;;;;;;;;;4993122;28;20479;-51
2021/06/15 14:04:32;;;;;;;4.60;1.80;;;;;;;;;;4992920;28;20440;-51
2021/06/15 14:06:58;;;;;;;3.10;1.70;;;;;;;;;;4992908;28;20423;-50
2021/06/15 14:09:24;;;;;;;1.70;1.60;;;;;;;;;;4992939;28;20499;-50
2021/06/15 14:11:49;;;;;;;5.80;2.07;;;;;;;;;;4992879;28;20455;-50
2021/06/15 14:14:15;;;;;;;6.27;1.80;;;;;;;;;;4992676;28;20892;-49
2021/06/15 14:16:41;;;;;;;2.03;1.70;;;;;;;;;;4992722;28;20434;-49
2021/06/15 14:19:07;;;;;;;2.33;1.67;;;;;;;;;;4992753;28;20866;-49
2021/06/15 14:21:39;;;;;;;2.40;1.80;;;;;;;;;;4992745;28;20931;-50
2021/06/15 14:24:09;;;;;;;1.70;1.57;;;;;;;;;;4992616;28;20408;-50
2021/06/15 14:26:35;;;;;;;4.03;1.80;;;;;;;;;;4992344;28;20408;-50
2021/06/15 14:29:01;;;;;;;3.00;1.77;;;;;;;;;;4992604;28;20930;-50
2021/06/15 14:31:27;;;;;;;1.87;1.77;;;;;;;;;;4992525;28;20517;-49
2021/06/15 14:33:53;;;;;;;2.80;1.60;;;;;;;;;;4992450;28;20475;-49
2021/06/15 14:36:19;;;;;;;1.70;1.60;;;;;;;;;;4992380;28;20886;-50
2021/06/15 14:38:47;;;;;;;2.40;1.40;;;;;;;;;;4992438;28;20405;-50
2021/06/15 14:41:13;;;;;;;5.53;1.33;;;;;;;;;;4992116;28;20820;-50